sensor_id;sensor_type;location;lat;lon;timestamp;P1;durP1;ratioP1;P2;durP2;ratioP2
44704;SDS011;30431;48.520;9.046;2023-04-24T00:02:22;14.65;;;7.45;;
44704;SDS011;30431;48.520;9.046;2023-04-24T00:04:50;14.30;;;6.55;;
44704;SDS011;30431;48.520;9.046;2023-04-24T00:07:20;16.23;;;7.43;;
44704;SDS011;30431;48.520;9.046;2023-04-24T00:09:49;14.68;;;6.05;;
44704;SDS011;30431;48.520;9.046;2023-04-24T00:12:18;6.63;;;3.08;;
44704;SDS011;30431;48.520;9.046;2023-04-24T00:14:45;2.85;;;2.10;;
44704;SDS011;30431;48.520;9.046;2023-04-24T00:17:14;3.58;;;1.58;;
44704;SDS011;30431;48.520;9.046;2023-04-24T00:19:41;3.63;;;1.80;;
44704;SDS011;30431;48.520;9.046;2023-04-24T00:24:35;1.73;;;1.52;;
44704;SDS011;30431;48.520;9.046;2023-04-24T00:27:04;3.78;;;2.35;;
44704;SDS011;30431;48.520;9.046;2023-04-24T00:29:33;9.57;;;3.95;;
44704;SDS011;30431;48.520;9.046;2023-04-24T00:32:00;8.93;;;4.78;;
44704;SDS011;30431;48.520;9.046;2023-04-24T00:34:30;12.70;;;6.10;;
44704;SDS011;30431;48.520;9.046;2023-04-24T00:36:59;16.17;;;8.75;;
44704;SDS011;30431;48.520;9.046;2023-04-24T00:39:26;13.35;;;5.85;;
44704;SDS011;30431;48.520;9.046;2023-04-24T00:41:53;13.25;;;6.35;;
44704;SDS011;30431;48.520;9.046;2023-04-24T00:44:23;20.02;;;8.35;;
44704;SDS011;30431;48.520;9.046;2023-04-24T00:46:53;15.20;;;6.20;;
44704;SDS011;30431;48.520;9.046;2023-04-24T00:49:21;15.82;;;6.93;;
44704;SDS011;30431;48.520;9.046;2023-04-24T00:51:49;16.35;;;7.13;;
44704;SDS011;30431;48.520;9.046;2023-04-24T00:54:17;14.30;;;6.50;;
44704;SDS011;30431;48.520;9.046;2023-04-24T00:56:44;24.83;;;10.45;;
44704;SDS011;30431;48.520;9.046;2023-04-24T00:59:12;10.75;;;4.85;;
44704;SDS011;30431;48.520;9.046;2023-04-24T01:01:39;15.30;;;6.15;;
44704;SDS011;30431;48.520;9.046;2023-04-24T01:04:11;14.65;;;5.65;;
44704;SDS011;30431;48.520;9.046;2023-04-24T01:06:39;6.18;;;3.00;;
44704;SDS011;30431;48.520;9.046;2023-04-24T01:09:07;3.35;;;1.80;;
44704;SDS011;30431;48.520;9.046;2023-04-24T01:11:35;1.65;;;1.40;;
44704;SDS011;30431;48.520;9.046;2023-04-24T01:14:04;3.90;;;1.55;;
44704;SDS011;30431;48.520;9.046;2023-04-24T01:16:31;2.03;;;1.70;;
44704;SDS011;30431;48.520;9.046;2023-04-24T01:19:00;2.78;;;1.63;;
44704;SDS011;30431;48.520;9.046;2023-04-24T01:21:27;3.88;;;1.65;;
44704;SDS011;30431;48.520;9.046;2023-04-24T01:23:56;8.18;;;2.30;;
44704;SDS011;30431;48.520;9.046;2023-04-24T01:26:23;3.30;;;1.60;;
44704;SDS011;30431;48.520;9.046;2023-04-24T01:28:54;3.85;;;1.60;;
44704;SDS011;30431;48.520;9.046;2023-04-24T01:31:21;3.22;;;1.67;;
44704;SDS011;30431;48.520;9.046;2023-04-24T01:33:50;1.85;;;1.48;;
44704;SDS011;30431;48.520;9.046;2023-04-24T01:36:18;2.97;;;1.60;;
44704;SDS011;30431;48.520;9.046;2023-04-24T01:38:48;3.22;;;1.48;;
44704;SDS011;30431;48.520;9.046;2023-04-24T01:41:15;4.25;;;1.60;;
44704;SDS011;30431;48.520;9.046;2023-04-24T01:43:44;3.80;;;1.70;;
44704;SDS011;30431;48.520;9.046;2023-04-24T01:46:11;5.60;;;1.55;;
44704;SDS011;30431;48.520;9.046;2023-04-24T01:48:38;5.18;;;1.67;;
44704;SDS011;30431;48.520;9.046;2023-04-24T01:51:06;3.03;;;1.70;;
44704;SDS011;30431;48.520;9.046;2023-04-24T01:53:38;2.85;;;1.58;;
44704;SDS011;30431;48.520;9.046;2023-04-24T01:56:08;3.10;;;2.03;;
44704;SDS011;30431;48.520;9.046;2023-04-24T02:01:06;1.55;;;1.30;;
44704;SDS011;30431;48.520;9.046;2023-04-24T02:03:39;3.47;;;1.77;;
44704;SDS011;30431;48.520;9.046;2023-04-24T02:06:06;3.60;;;1.60;;
44704;SDS011;30431;48.520;9.046;2023-04-24T02:08:35;3.28;;;2.05;;
44704;SDS011;30431;48.520;9.046;2023-04-24T02:11:02;3.35;;;1.40;;
44704;SDS011;30431;48.520;9.046;2023-04-24T02:13:30;2.22;;;1.30;;
44704;SDS011;30431;48.520;9.046;2023-04-24T02:16:00;1.45;;;1.33;;
44704;SDS011;30431;48.520;9.046;2023-04-24T02:18:28;2.70;;;1.50;;
44704;SDS011;30431;48.520;9.046;2023-04-24T02:20:56;2.03;;;1.52;;
44704;SDS011;30431;48.520;9.046;2023-04-24T02:23:23;1.50;;;1.40;;
44704;SDS011;30431;48.520;9.046;2023-04-24T02:25:53;3.10;;;1.58;;
44704;SDS011;30431;48.520;9.046;2023-04-24T02:28:20;4.32;;;1.60;;
44704;SDS011;30431;48.520;9.046;2023-04-24T02:30:49;3.28;;;1.38;;
44704;SDS011;30431;48.520;9.046;2023-04-24T02:35:43;2.40;;;1.48;;
44704;SDS011;30431;48.520;9.046;2023-04-24T02:38:11;1.98;;;1.45;;
44704;SDS011;30431;48.520;9.046;2023-04-24T02:40:38;4.63;;;1.52;;
44704;SDS011;30431;48.520;9.046;2023-04-24T02:43:09;3.20;;;1.42;;
44704;SDS011;30431;48.520;9.046;2023-04-24T02:45:36;4.18;;;1.65;;
44704;SDS011;30431;48.520;9.046;2023-04-24T02:48:07;2.55;;;1.60;;
44704;SDS011;30431;48.520;9.046;2023-04-24T02:50:34;3.58;;;2.10;;
44704;SDS011;30431;48.520;9.046;2023-04-24T02:53:02;3.35;;;1.63;;
44704;SDS011;30431;48.520;9.046;2023-04-24T02:55:31;3.17;;;1.70;;
44704;SDS011;30431;48.520;9.046;2023-04-24T02:58:01;4.93;;;1.90;;
44704;SDS011;30431;48.520;9.046;2023-04-24T03:00:28;4.18;;;1.92;;
44704;SDS011;30431;48.520;9.046;2023-04-24T03:07:49;4.22;;;2.10;;
44704;SDS011;30431;48.520;9.046;2023-04-24T03:10:20;3.25;;;1.90;;
44704;SDS011;30431;48.520;9.046;2023-04-24T03:12:49;3.55;;;1.58;;
44704;SDS011;30431;48.520;9.046;2023-04-24T03:15:17;2.90;;;1.40;;
44704;SDS011;30431;48.520;9.046;2023-04-24T03:17:44;3.45;;;1.55;;
44704;SDS011;30431;48.520;9.046;2023-04-24T03:20:14;3.50;;;1.50;;
44704;SDS011;30431;48.520;9.046;2023-04-24T03:22:42;5.00;;;1.60;;
44704;SDS011;30431;48.520;9.046;2023-04-24T03:25:10;4.10;;;1.60;;
44704;SDS011;30431;48.520;9.046;2023-04-24T03:27:39;2.03;;;1.50;;
44704;SDS011;30431;48.520;9.046;2023-04-24T03:30:15;2.17;;;1.40;;
44704;SDS011;30431;48.520;9.046;2023-04-24T03:32:50;4.32;;;1.70;;
44704;SDS011;30431;48.520;9.046;2023-04-24T03:35:22;5.05;;;1.80;;
44704;SDS011;30431;48.520;9.046;2023-04-24T03:37:50;3.33;;;1.73;;
44704;SDS011;30431;48.520;9.046;2023-04-24T03:40:36;6.30;;;2.08;;
44704;SDS011;30431;48.520;9.046;2023-04-24T03:43:10;2.10;;;1.38;;
44704;SDS011;30431;48.520;9.046;2023-04-24T03:45:37;4.47;;;1.75;;
44704;SDS011;30431;48.520;9.046;2023-04-24T03:48:05;4.03;;;1.42;;
44704;SDS011;30431;48.520;9.046;2023-04-24T03:50:33;3.30;;;1.50;;
44704;SDS011;30431;48.520;9.046;2023-04-24T03:53:03;2.35;;;1.30;;
44704;SDS011;30431;48.520;9.046;2023-04-24T03:55:38;6.25;;;1.58;;
44704;SDS011;30431;48.520;9.046;2023-04-24T03:58:05;1.90;;;1.60;;
44704;SDS011;30431;48.520;9.046;2023-04-24T04:00:32;4.53;;;1.60;;
44704;SDS011;30431;48.520;9.046;2023-04-24T04:03:20;2.97;;;1.40;;
44704;SDS011;30431;48.520;9.046;2023-04-24T04:05:48;3.17;;;1.50;;
44704;SDS011;30431;48.520;9.046;2023-04-24T04:08:20;5.40;;;1.42;;
44704;SDS011;30431;48.520;9.046;2023-04-24T04:10:49;1.95;;;1.40;;
44704;SDS011;30431;48.520;9.046;2023-04-24T04:13:16;7.38;;;2.00;;
44704;SDS011;30431;48.520;9.046;2023-04-24T04:15:45;1.88;;;1.58;;
44704;SDS011;30431;48.520;9.046;2023-04-24T04:18:15;2.53;;;1.50;;
44704;SDS011;30431;48.520;9.046;2023-04-24T04:20:44;2.55;;;1.63;;
44704;SDS011;30431;48.520;9.046;2023-04-24T04:23:13;2.42;;;1.70;;
44704;SDS011;30431;48.520;9.046;2023-04-24T04:25:53;3.33;;;1.50;;
44704;SDS011;30431;48.520;9.046;2023-04-24T04:28:26;2.10;;;1.70;;
44704;SDS011;30431;48.520;9.046;2023-04-24T04:30:53;4.93;;;1.52;;
44704;SDS011;30431;48.520;9.046;2023-04-24T04:33:24;5.60;;;1.92;;
44704;SDS011;30431;48.520;9.046;2023-04-24T04:35:52;4.30;;;1.73;;
44704;SDS011;30431;48.520;9.046;2023-04-24T04:38:26;5.38;;;1.92;;
44704;SDS011;30431;48.520;9.046;2023-04-24T04:41:16;3.63;;;1.88;;
44704;SDS011;30431;48.520;9.046;2023-04-24T04:43:48;2.95;;;1.50;;
44704;SDS011;30431;48.520;9.046;2023-04-24T04:46:17;2.88;;;1.63;;
44704;SDS011;30431;48.520;9.046;2023-04-24T04:49:05;3.15;;;1.77;;
44704;SDS011;30431;48.520;9.046;2023-04-24T04:51:35;2.70;;;1.70;;
44704;SDS011;30431;48.520;9.046;2023-04-24T04:54:03;3.80;;;1.48;;
44704;SDS011;30431;48.520;9.046;2023-04-24T04:56:33;2.38;;;1.50;;
44704;SDS011;30431;48.520;9.046;2023-04-24T04:59:01;1.88;;;1.30;;
44704;SDS011;30431;48.520;9.046;2023-04-24T05:03:55;2.13;;;1.52;;
44704;SDS011;30431;48.520;9.046;2023-04-24T05:06:23;1.95;;;1.42;;
44704;SDS011;30431;48.520;9.046;2023-04-24T05:08:53;2.55;;;1.80;;
44704;SDS011;30431;48.520;9.046;2023-04-24T05:11:45;5.50;;;2.00;;
44704;SDS011;30431;48.520;9.046;2023-04-24T05:14:12;2.15;;;1.70;;
44704;SDS011;30431;48.520;9.046;2023-04-24T05:16:41;3.72;;;1.80;;
44704;SDS011;30431;48.520;9.046;2023-04-24T05:19:10;4.85;;;2.45;;
44704;SDS011;30431;48.520;9.046;2023-04-24T05:21:42;3.92;;;2.40;;
44704;SDS011;30431;48.520;9.046;2023-04-24T05:24:10;4.57;;;2.10;;
44704;SDS011;30431;48.520;9.046;2023-04-24T05:26:48;5.80;;;2.40;;
44704;SDS011;30431;48.520;9.046;2023-04-24T05:29:21;3.38;;;1.90;;
44704;SDS011;30431;48.520;9.046;2023-04-24T05:31:49;2.70;;;1.70;;
44704;SDS011;30431;48.520;9.046;2023-04-24T05:34:19;2.97;;;1.92;;
44704;SDS011;30431;48.520;9.046;2023-04-24T05:36:49;4.53;;;1.90;;
44704;SDS011;30431;48.520;9.046;2023-04-24T05:39:18;2.30;;;1.60;;
44704;SDS011;30431;48.520;9.046;2023-04-24T05:41:49;2.65;;;1.73;;
44704;SDS011;30431;48.520;9.046;2023-04-24T05:44:19;3.85;;;2.00;;
44704;SDS011;30431;48.520;9.046;2023-04-24T05:46:51;5.55;;;2.33;;
44704;SDS011;30431;48.520;9.046;2023-04-24T05:49:22;6.55;;;2.10;;
44704;SDS011;30431;48.520;9.046;2023-04-24T05:51:52;4.05;;;2.35;;
44704;SDS011;30431;48.520;9.046;2023-04-24T05:54:18;2.92;;;1.63;;
44704;SDS011;30431;48.520;9.046;2023-04-24T05:56:45;4.85;;;2.03;;
44704;SDS011;30431;48.520;9.046;2023-04-24T05:59:19;2.50;;;1.70;;
44704;SDS011;30431;48.520;9.046;2023-04-24T06:01:47;4.15;;;2.15;;
44704;SDS011;30431;48.520;9.046;2023-04-24T06:04:20;3.13;;;1.80;;
44704;SDS011;30431;48.520;9.046;2023-04-24T06:06:48;3.25;;;2.03;;
44704;SDS011;30431;48.520;9.046;2023-04-24T06:09:22;3.83;;;1.90;;
44704;SDS011;30431;48.520;9.046;2023-04-24T06:11:52;3.20;;;1.80;;
44704;SDS011;30431;48.520;9.046;2023-04-24T06:14:30;2.97;;;1.92;;
44704;SDS011;30431;48.520;9.046;2023-04-24T06:17:13;4.30;;;2.15;;
44704;SDS011;30431;48.520;9.046;2023-04-24T06:19:42;2.45;;;1.90;;
44704;SDS011;30431;48.520;9.046;2023-04-24T06:22:10;2.53;;;1.80;;
44704;SDS011;30431;48.520;9.046;2023-04-24T06:24:39;2.58;;;1.80;;
44704;SDS011;30431;48.520;9.046;2023-04-24T06:27:06;3.58;;;1.75;;
44704;SDS011;30431;48.520;9.046;2023-04-24T06:32:01;2.53;;;1.90;;
44704;SDS011;30431;48.520;9.046;2023-04-24T06:34:28;3.03;;;1.85;;
44704;SDS011;30431;48.520;9.046;2023-04-24T06:36:57;2.92;;;1.80;;
44704;SDS011;30431;48.520;9.046;2023-04-24T06:39:24;4.65;;;2.20;;
44704;SDS011;30431;48.520;9.046;2023-04-24T06:41:51;4.07;;;1.90;;
44704;SDS011;30431;48.520;9.046;2023-04-24T06:44:19;3.22;;;1.70;;
44704;SDS011;30431;48.520;9.046;2023-04-24T06:46:46;2.28;;;1.60;;
44704;SDS011;30431;48.520;9.046;2023-04-24T06:49:13;4.15;;;1.80;;
44704;SDS011;30431;48.520;9.046;2023-04-24T06:51:44;2.47;;;1.80;;
44704;SDS011;30431;48.520;9.046;2023-04-24T06:54:13;5.00;;;2.60;;
44704;SDS011;30431;48.520;9.046;2023-04-24T06:56:40;4.57;;;2.50;;
44704;SDS011;30431;48.520;9.046;2023-04-24T06:59:09;10.50;;;3.20;;
44704;SDS011;30431;48.520;9.046;2023-04-24T07:01:36;3.90;;;2.28;;
44704;SDS011;30431;48.520;9.046;2023-04-24T07:04:03;4.20;;;2.45;;
44704;SDS011;30431;48.520;9.046;2023-04-24T07:06:31;2.95;;;2.00;;
44704;SDS011;30431;48.520;9.046;2023-04-24T07:08:58;3.75;;;2.40;;
44704;SDS011;30431;48.520;9.046;2023-04-24T07:11:30;2.70;;;1.65;;
44704;SDS011;30431;48.520;9.046;2023-04-24T07:13:59;11.32;;;3.90;;
44704;SDS011;30431;48.520;9.046;2023-04-24T07:16:28;5.15;;;2.20;;
44704;SDS011;30431;48.520;9.046;2023-04-24T07:18:56;3.40;;;2.00;;
44704;SDS011;30431;48.520;9.046;2023-04-24T07:21:26;2.28;;;1.63;;
44704;SDS011;30431;48.520;9.046;2023-04-24T07:23:53;2.60;;;1.60;;
44704;SDS011;30431;48.520;9.046;2023-04-24T07:26:22;4.50;;;1.70;;
44704;SDS011;30431;48.520;9.046;2023-04-24T07:28:52;6.13;;;1.80;;
44704;SDS011;30431;48.520;9.046;2023-04-24T07:31:19;8.77;;;1.60;;
44704;SDS011;30431;48.520;9.046;2023-04-24T07:33:47;3.38;;;1.88;;
44704;SDS011;30431;48.520;9.046;2023-04-24T07:36:16;3.78;;;1.67;;
44704;SDS011;30431;48.520;9.046;2023-04-24T07:38:45;3.33;;;1.90;;
44704;SDS011;30431;48.520;9.046;2023-04-24T07:41:13;1.75;;;1.60;;
44704;SDS011;30431;48.520;9.046;2023-04-24T07:43:40;3.22;;;1.80;;
44704;SDS011;30431;48.520;9.046;2023-04-24T07:48:35;1.67;;;1.50;;
44704;SDS011;30431;48.520;9.046;2023-04-24T07:51:05;5.93;;;2.22;;
44704;SDS011;30431;48.520;9.046;2023-04-24T07:53:38;7.53;;;1.90;;
44704;SDS011;30431;48.520;9.046;2023-04-24T07:56:05;3.17;;;1.80;;
44704;SDS011;30431;48.520;9.046;2023-04-24T07:58:33;4.55;;;1.90;;
44704;SDS011;30431;48.520;9.046;2023-04-24T08:01:00;2.65;;;1.77;;
44704;SDS011;30431;48.520;9.046;2023-04-24T08:03:30;3.03;;;1.90;;
44704;SDS011;30431;48.520;9.046;2023-04-24T08:05:59;4.57;;;1.95;;
44704;SDS011;30431;48.520;9.046;2023-04-24T08:08:30;5.00;;;2.38;;
44704;SDS011;30431;48.520;9.046;2023-04-24T08:10:57;2.45;;;1.73;;
44704;SDS011;30431;48.520;9.046;2023-04-24T08:13:24;4.07;;;1.70;;
44704;SDS011;30431;48.520;9.046;2023-04-24T08:15:56;2.70;;;1.83;;
44704;SDS011;30431;48.520;9.046;2023-04-24T08:18:26;3.47;;;1.88;;
44704;SDS011;30431;48.520;9.046;2023-04-24T08:20:58;5.30;;;1.90;;
44704;SDS011;30431;48.520;9.046;2023-04-24T08:23:28;3.15;;;2.00;;
44704;SDS011;30431;48.520;9.046;2023-04-24T08:25:56;3.78;;;1.90;;
44704;SDS011;30431;48.520;9.046;2023-04-24T08:28:26;3.58;;;1.90;;
44704;SDS011;30431;48.520;9.046;2023-04-24T08:30:53;3.33;;;1.85;;
44704;SDS011;30431;48.520;9.046;2023-04-24T08:33:23;1.95;;;1.63;;
44704;SDS011;30431;48.520;9.046;2023-04-24T08:35:50;7.00;;;1.90;;
44704;SDS011;30431;48.520;9.046;2023-04-24T08:38:17;3.13;;;2.10;;
44704;SDS011;30431;48.520;9.046;2023-04-24T08:40:44;3.92;;;1.90;;
44704;SDS011;30431;48.520;9.046;2023-04-24T08:43:14;3.95;;;2.08;;
44704;SDS011;30431;48.520;9.046;2023-04-24T08:45:44;3.70;;;1.90;;
44704;SDS011;30431;48.520;9.046;2023-04-24T08:48:18;6.47;;;1.83;;
44704;SDS011;30431;48.520;9.046;2023-04-24T08:50:57;6.75;;;1.88;;
44704;SDS011;30431;48.520;9.046;2023-04-24T08:53:25;3.05;;;2.00;;
44704;SDS011;30431;48.520;9.046;2023-04-24T08:55:54;6.82;;;3.30;;
44704;SDS011;30431;48.520;9.046;2023-04-24T08:58:22;4.10;;;2.03;;
44704;SDS011;30431;48.520;9.046;2023-04-24T09:00:54;5.47;;;2.70;;
44704;SDS011;30431;48.520;9.046;2023-04-24T09:03:22;4.40;;;1.98;;
44704;SDS011;30431;48.520;9.046;2023-04-24T09:05:52;5.43;;;1.90;;
44704;SDS011;30431;48.520;9.046;2023-04-24T09:08:22;3.40;;;2.17;;
44704;SDS011;30431;48.520;9.046;2023-04-24T09:10:53;5.18;;;1.90;;
44704;SDS011;30431;48.520;9.046;2023-04-24T09:13:20;4.70;;;1.88;;
44704;SDS011;30431;48.520;9.046;2023-04-24T09:15:47;4.20;;;1.92;;
44704;SDS011;30431;48.520;9.046;2023-04-24T09:18:17;4.50;;;2.20;;
44704;SDS011;30431;48.520;9.046;2023-04-24T09:21:03;4.15;;;1.80;;
44704;SDS011;30431;48.520;9.046;2023-04-24T09:23:35;3.78;;;1.90;;
44704;SDS011;30431;48.520;9.046;2023-04-24T09:26:05;3.92;;;1.90;;
44704;SDS011;30431;48.520;9.046;2023-04-24T09:28:33;4.50;;;1.80;;
44704;SDS011;30431;48.520;9.046;2023-04-24T09:31:13;2.85;;;1.75;;
44704;SDS011;30431;48.520;9.046;2023-04-24T09:33:55;5.45;;;2.30;;
44704;SDS011;30431;48.520;9.046;2023-04-24T09:36:27;8.77;;;2.17;;
44704;SDS011;30431;48.520;9.046;2023-04-24T09:38:59;6.03;;;2.08;;
44704;SDS011;30431;48.520;9.046;2023-04-24T09:41:31;5.18;;;1.90;;
44704;SDS011;30431;48.520;9.046;2023-04-24T09:44:20;4.68;;;1.90;;
44704;SDS011;30431;48.520;9.046;2023-04-24T09:46:56;4.00;;;1.80;;
44704;SDS011;30431;48.520;9.046;2023-04-24T09:49:28;3.35;;;1.90;;
44704;SDS011;30431;48.520;9.046;2023-04-24T09:52:05;8.38;;;1.95;;
44704;SDS011;30431;48.520;9.046;2023-04-24T09:54:39;3.60;;;1.77;;
44704;SDS011;30431;48.520;9.046;2023-04-24T09:57:18;2.75;;;1.60;;
44704;SDS011;30431;48.520;9.046;2023-04-24T09:59:45;3.08;;;1.75;;
44704;SDS011;30431;48.520;9.046;2023-04-24T10:02:16;5.18;;;1.90;;
44704;SDS011;30431;48.520;9.046;2023-04-24T10:05:03;4.43;;;1.80;;
44704;SDS011;30431;48.520;9.046;2023-04-24T10:07:33;2.72;;;1.83;;
44704;SDS011;30431;48.520;9.046;2023-04-24T10:10:02;2.75;;;1.60;;
44704;SDS011;30431;48.520;9.046;2023-04-24T10:12:30;1.75;;;1.45;;
44704;SDS011;30431;48.520;9.046;2023-04-24T10:15:00;3.33;;;1.80;;
44704;SDS011;30431;48.520;9.046;2023-04-24T10:17:29;4.55;;;2.00;;
44704;SDS011;30431;48.520;9.046;2023-04-24T10:19:56;2.42;;;1.58;;
44704;SDS011;30431;48.520;9.046;2023-04-24T10:22:24;3.05;;;1.90;;
44704;SDS011;30431;48.520;9.046;2023-04-24T10:24:54;1.60;;;1.50;;
44704;SDS011;30431;48.520;9.046;2023-04-24T10:27:21;2.17;;;1.67;;
44704;SDS011;30431;48.520;9.046;2023-04-24T10:29:52;3.33;;;1.70;;
44704;SDS011;30431;48.520;9.046;2023-04-24T10:34:47;2.33;;;1.80;;
44704;SDS011;30431;48.520;9.046;2023-04-24T10:37:14;3.45;;;1.58;;
44704;SDS011;30431;48.520;9.046;2023-04-24T10:39:42;4.75;;;2.10;;
44704;SDS011;30431;48.520;9.046;2023-04-24T10:42:15;2.97;;;1.77;;
44704;SDS011;30431;48.520;9.046;2023-04-24T10:44:43;3.80;;;1.63;;
44704;SDS011;30431;48.520;9.046;2023-04-24T10:47:13;4.45;;;1.50;;
44704;SDS011;30431;48.520;9.046;2023-04-24T10:49:40;2.83;;;1.50;;
44704;SDS011;30431;48.520;9.046;2023-04-24T10:52:08;2.15;;;1.50;;
44704;SDS011;30431;48.520;9.046;2023-04-24T10:54:41;5.82;;;1.50;;
44704;SDS011;30431;48.520;9.046;2023-04-24T11:00:10;4.60;;;2.35;;
44704;SDS011;30431;48.520;9.046;2023-04-24T11:02:41;4.63;;;1.70;;
44704;SDS011;30431;48.520;9.046;2023-04-24T11:05:16;2.55;;;1.45;;
44704;SDS011;30431;48.520;9.046;2023-04-24T11:10:43;2.95;;;1.77;;
44704;SDS011;30431;48.520;9.046;2023-04-24T11:13:21;2.75;;;1.75;;
44704;SDS011;30431;48.520;9.046;2023-04-24T11:19:03;1.67;;;1.52;;
44704;SDS011;30431;48.520;9.046;2023-04-24T11:24:24;5.28;;;1.70;;
44704;SDS011;30431;48.520;9.046;2023-04-24T11:26:56;1.95;;;1.50;;
44704;SDS011;30431;48.520;9.046;2023-04-24T11:29:37;1.92;;;1.60;;
44704;SDS011;30431;48.520;9.046;2023-04-24T11:32:55;4.78;;;2.08;;
44704;SDS011;30431;48.520;9.046;2023-04-24T11:35:18;1.77;;;1.40;;
44704;SDS011;30431;48.520;9.046;2023-04-24T11:37:52;2.15;;;1.50;;
44704;SDS011;30431;48.520;9.046;2023-04-24T11:40:39;3.85;;;1.63;;
44704;SDS011;30431;48.520;9.046;2023-04-24T11:43:07;4.72;;;1.50;;
44704;SDS011;30431;48.520;9.046;2023-04-24T11:45:38;1.58;;;1.48;;
44704;SDS011;30431;48.520;9.046;2023-04-24T11:48:20;1.55;;;1.40;;
44704;SDS011;30431;48.520;9.046;2023-04-24T11:50:49;2.85;;;1.70;;
44704;SDS011;30431;48.520;9.046;2023-04-24T11:53:18;3.60;;;2.50;;
44704;SDS011;30431;48.520;9.046;2023-04-24T11:55:47;4.57;;;2.83;;
44704;SDS011;30431;48.520;9.046;2023-04-24T11:58:14;2.10;;;1.40;;
44704;SDS011;30431;48.520;9.046;2023-04-24T12:00:53;2.25;;;1.50;;
44704;SDS011;30431;48.520;9.046;2023-04-24T12:03:23;3.72;;;2.30;;
44704;SDS011;30431;48.520;9.046;2023-04-24T12:05:50;4.00;;;2.33;;
44704;SDS011;30431;48.520;9.046;2023-04-24T12:08:29;3.85;;;1.90;;
44704;SDS011;30431;48.520;9.046;2023-04-24T12:10:59;3.00;;;1.67;;
44704;SDS011;30431;48.520;9.046;2023-04-24T12:13:28;2.08;;;1.50;;
44704;SDS011;30431;48.520;9.046;2023-04-24T12:15:56;3.42;;;1.33;;
44704;SDS011;30431;48.520;9.046;2023-04-24T12:18:23;1.85;;;1.50;;
44704;SDS011;30431;48.520;9.046;2023-04-24T12:20:53;1.95;;;1.50;;
44704;SDS011;30431;48.520;9.046;2023-04-24T12:23:35;2.03;;;1.27;;
44704;SDS011;30431;48.520;9.046;2023-04-24T12:26:05;2.42;;;1.45;;
44704;SDS011;30431;48.520;9.046;2023-04-24T12:28:36;2.65;;;1.50;;
44704;SDS011;30431;48.520;9.046;2023-04-24T12:31:04;2.25;;;1.38;;
44704;SDS011;30431;48.520;9.046;2023-04-24T12:33:35;3.85;;;1.85;;
44704;SDS011;30431;48.520;9.046;2023-04-24T12:36:02;1.40;;;1.30;;
44704;SDS011;30431;48.520;9.046;2023-04-24T12:41:04;2.80;;;1.40;;
44704;SDS011;30431;48.520;9.046;2023-04-24T12:43:32;2.70;;;1.65;;
44704;SDS011;30431;48.520;9.046;2023-04-24T12:48:28;3.67;;;1.80;;
44704;SDS011;30431;48.520;9.046;2023-04-24T12:50:58;2.53;;;1.70;;
44704;SDS011;30431;48.520;9.046;2023-04-24T12:53:28;3.10;;;1.67;;
44704;SDS011;30431;48.520;9.046;2023-04-24T12:56:01;7.22;;;1.70;;
44704;SDS011;30431;48.520;9.046;2023-04-24T12:58:27;2.33;;;1.55;;
44704;SDS011;30431;48.520;9.046;2023-04-24T13:00:55;2.05;;;1.60;;
44704;SDS011;30431;48.520;9.046;2023-04-24T13:03:25;4.10;;;2.17;;
44704;SDS011;30431;48.520;9.046;2023-04-24T13:05:57;8.65;;;3.28;;
44704;SDS011;30431;48.520;9.046;2023-04-24T13:08:27;5.40;;;2.40;;
44704;SDS011;30431;48.520;9.046;2023-04-24T13:11:06;4.40;;;2.03;;
44704;SDS011;30431;48.520;9.046;2023-04-24T13:13:37;4.18;;;1.80;;
44704;SDS011;30431;48.520;9.046;2023-04-24T13:16:07;2.92;;;1.80;;
44704;SDS011;30431;48.520;9.046;2023-04-24T13:18:34;4.32;;;2.05;;
44704;SDS011;30431;48.520;9.046;2023-04-24T13:23:33;3.25;;;1.83;;
44704;SDS011;30431;48.520;9.046;2023-04-24T13:26:01;3.90;;;1.90;;
44704;SDS011;30431;48.520;9.046;2023-04-24T13:28:28;4.15;;;2.90;;
44704;SDS011;30431;48.520;9.046;2023-04-24T13:30:56;7.30;;;2.20;;
44704;SDS011;30431;48.520;9.046;2023-04-24T13:33:26;4.75;;;2.30;;
44704;SDS011;30431;48.520;9.046;2023-04-24T13:38:20;10.52;;;3.10;;
44704;SDS011;30431;48.520;9.046;2023-04-24T13:40:48;5.88;;;3.88;;
44704;SDS011;30431;48.520;9.046;2023-04-24T13:43:15;4.57;;;2.40;;
44704;SDS011;30431;48.520;9.046;2023-04-24T13:45:42;5.93;;;2.80;;
44704;SDS011;30431;48.520;9.046;2023-04-24T13:48:11;5.75;;;2.30;;
44704;SDS011;30431;48.520;9.046;2023-04-24T13:50:44;5.03;;;2.50;;
44704;SDS011;30431;48.520;9.046;2023-04-24T13:53:11;5.78;;;3.10;;
44704;SDS011;30431;48.520;9.046;2023-04-24T14:00:33;3.13;;;1.80;;
44704;SDS011;30431;48.520;9.046;2023-04-24T14:03:00;2.78;;;1.95;;
44704;SDS011;30431;48.520;9.046;2023-04-24T14:05:32;5.68;;;2.50;;
44704;SDS011;30431;48.520;9.046;2023-04-24T14:07:59;2.97;;;1.75;;
44704;SDS011;30431;48.520;9.046;2023-04-24T14:10:28;2.72;;;1.90;;
44704;SDS011;30431;48.520;9.046;2023-04-24T14:12:56;2.60;;;1.73;;
44704;SDS011;30431;48.520;9.046;2023-04-24T14:15:26;2.70;;;1.70;;
44704;SDS011;30431;48.520;9.046;2023-04-24T14:17:56;4.40;;;2.08;;
44704;SDS011;30431;48.520;9.046;2023-04-24T14:20:25;1.80;;;1.60;;
44704;SDS011;30431;48.520;9.046;2023-04-24T14:22:55;3.95;;;1.90;;
44704;SDS011;30431;48.520;9.046;2023-04-24T14:25:24;3.42;;;1.60;;
44704;SDS011;30431;48.520;9.046;2023-04-24T14:27:54;3.60;;;2.25;;
44704;SDS011;30431;48.520;9.046;2023-04-24T14:30:24;4.05;;;2.38;;
44704;SDS011;30431;48.520;9.046;2023-04-24T14:32:51;4.28;;;2.28;;
44704;SDS011;30431;48.520;9.046;2023-04-24T14:35:18;8.52;;;2.60;;
44704;SDS011;30431;48.520;9.046;2023-04-24T14:37:45;5.43;;;3.10;;
44704;SDS011;30431;48.520;9.046;2023-04-24T14:40:12;6.20;;;2.72;;
44704;SDS011;30431;48.520;9.046;2023-04-24T14:42:59;8.60;;;3.83;;
44704;SDS011;30431;48.520;9.046;2023-04-24T14:45:27;5.07;;;2.70;;
44704;SDS011;30431;48.520;9.046;2023-04-24T14:47:59;4.53;;;1.98;;
44704;SDS011;30431;48.520;9.046;2023-04-24T14:50:26;3.80;;;1.70;;
44704;SDS011;30431;48.520;9.046;2023-04-24T14:52:55;5.93;;;1.70;;
44704;SDS011;30431;48.520;9.046;2023-04-24T14:55:25;3.25;;;1.95;;
44704;SDS011;30431;48.520;9.046;2023-04-24T15:02:47;3.00;;;2.13;;
44704;SDS011;30431;48.520;9.046;2023-04-24T15:05:14;2.95;;;1.90;;
44704;SDS011;30431;48.520;9.046;2023-04-24T15:07:41;4.25;;;1.80;;
44704;SDS011;30431;48.520;9.046;2023-04-24T15:10:09;2.58;;;1.80;;
44704;SDS011;30431;48.520;9.046;2023-04-24T15:12:36;2.03;;;1.80;;
44704;SDS011;30431;48.520;9.046;2023-04-24T15:15:03;4.22;;;2.25;;
44704;SDS011;30431;48.520;9.046;2023-04-24T15:17:33;3.33;;;2.00;;
44704;SDS011;30431;48.520;9.046;2023-04-24T15:20:03;5.18;;;2.13;;
44704;SDS011;30431;48.520;9.046;2023-04-24T15:22:32;3.38;;;2.00;;
44704;SDS011;30431;48.520;9.046;2023-04-24T15:24:59;2.25;;;1.60;;
44704;SDS011;30431;48.520;9.046;2023-04-24T15:27:38;2.20;;;1.80;;
44704;SDS011;30431;48.520;9.046;2023-04-24T15:30:07;3.05;;;1.90;;
44704;SDS011;30431;48.520;9.046;2023-04-24T15:32:39;1.80;;;1.70;;
44704;SDS011;30431;48.520;9.046;2023-04-24T15:35:07;2.63;;;2.00;;
44704;SDS011;30431;48.520;9.046;2023-04-24T15:37:36;3.92;;;1.80;;
44704;SDS011;30431;48.520;9.046;2023-04-24T15:40:04;3.28;;;1.80;;
44704;SDS011;30431;48.520;9.046;2023-04-24T15:42:34;3.90;;;2.33;;
44704;SDS011;30431;48.520;9.046;2023-04-24T15:45:01;2.53;;;1.80;;
44704;SDS011;30431;48.520;9.046;2023-04-24T15:47:29;4.53;;;2.60;;
44704;SDS011;30431;48.520;9.046;2023-04-24T15:50:00;5.82;;;2.80;;
44704;SDS011;30431;48.520;9.046;2023-04-24T15:52:31;3.75;;;1.83;;
44704;SDS011;30431;48.520;9.046;2023-04-24T15:54:58;4.82;;;1.88;;
44704;SDS011;30431;48.520;9.046;2023-04-24T15:57:25;3.50;;;2.05;;
44704;SDS011;30431;48.520;9.046;2023-04-24T15:59:54;4.65;;;2.50;;